Time;durP1;ratioP1;P1;durP2;ratioP2;P2;SDS_P1;SDS_P2;PMS_P1;PMS_P2;Temp;Humidity;BMP_temperature;BMP_pressure;BME280_temperature;BME280_humidity;BME280_pressure;Samples;Min_cycle;Max_cycle;Signal;HPM_P1;HPM_P2
2023/01/13 00:00:26;;;;;;;1.25;1.00;;;;;;;;;;5101289;28;20622;-64
2023/01/13 00:02:54;;;;;;;1.42;0.80;;;;;;;;;;5099894;28;20259;-65
2023/01/13 00:05:25;;;;;;;3.45;0.82;;;;;;;;;;5080914;28;20257;-64
2023/01/13 00:07:53;;;;;;;1.40;1.02;;;;;;;;;;5100431;28;20274;-65
2023/01/13 00:10:22;;;;;;;2.38;1.02;;;;;;;;;;5103452;28;20259;-65
2023/01/13 00:12:50;;;;;;;2.25;1.15;;;;;;;;;;5102533;28;20286;-64
2023/01/13 00:15:18;;;;;;;1.50;1.08;;;;;;;;;;5100770;28;20302;-64
2023/01/13 00:17:47;;;;;;;4.90;2.38;;;;;;;;;;5104268;28;20290;-64
2023/01/13 00:20:15;;;;;;;1.60;1.05;;;;;;;;;;5103159;28;20282;-64
2023/01/13 00:22:45;;;;;;;2.05;0.93;;;;;;;;;;5104946;28;20321;-64
2023/01/13 00:25:13;;;;;;;1.10;0.95;;;;;;;;;;5105180;28;20297;-65
2023/01/13 00:27:41;;;;;;;2.15;1.05;;;;;;;;;;5098848;28;20254;-65
2023/01/13 00:30:10;;;;;;;3.72;1.00;;;;;;;;;;5101557;28;20749;-65
2023/01/13 00:32:39;;;;;;;2.00;0.88;;;;;;;;;;5105095;28;20207;-65
2023/01/13 00:35:08;;;;;;;2.33;1.25;;;;;;;;;;5109751;28;20698;-65
2023/01/13 00:37:37;;;;;;;0.85;0.85;;;;;;;;;;5111317;28;20235;-65
2023/01/13 00:40:07;;;;;;;1.67;0.70;;;;;;;;;;5107207;28;20568;-65
2023/01/13 00:45:22;;;;;;;1.83;0.90;;;;;;;;;;5106041;28;20243;-65
2023/01/13 00:47:50;;;;;;;3.97;1.40;;;;;;;;;;5107909;28;20270;-65
2023/01/13 00:50:18;;;;;;;2.00;0.93;;;;;;;;;;5112859;28;20243;-63
2023/01/13 00:52:46;;;;;;;3.05;1.15;;;;;;;;;;5108680;28;20239;-63
2023/01/13 00:55:16;;;;;;;1.00;0.80;;;;;;;;;;5091523;28;20268;-64
2023/01/13 00:57:44;;;;;;;1.80;0.80;;;;;;;;;;5096401;28;20227;-63
2023/01/13 01:00:13;;;;;;;1.42;0.80;;;;;;;;;;5110294;28;20253;-65
2023/01/13 01:02:41;;;;;;;1.23;0.73;;;;;;;;;;5095490;28;20271;-63
2023/01/13 01:05:10;;;;;;;2.90;1.00;;;;;;;;;;5080336;28;20725;-63
2023/01/13 01:07:38;;;;;;;1.65;0.75;;;;;;;;;;5080563;28;20207;-63
2023/01/13 01:10:07;;;;;;;2.83;0.80;;;;;;;;;;5080628;28;20278;-63
2023/01/13 01:12:36;;;;;;;2.35;0.90;;;;;;;;;;5079202;28;20351;-62
2023/01/13 01:15:08;;;;;;;1.83;1.00;;;;;;;;;;5077359;28;20297;-64
2023/01/13 01:17:36;;;;;;;0.70;0.70;;;;;;;;;;5084935;28;20248;-63
2023/01/13 01:20:04;;;;;;;1.50;0.93;;;;;;;;;;5085300;28;20290;-63
2023/01/13 01:22:33;;;;;;;1.63;1.05;;;;;;;;;;5081927;28;20227;-64
2023/01/13 01:25:01;;;;;;;3.40;1.48;;;;;;;;;;5080688;28;20255;-63
2023/01/13 01:27:29;;;;;;;2.63;1.08;;;;;;;;;;5098727;28;20254;-63
2023/01/13 01:29:58;;;;;;;1.70;0.85;;;;;;;;;;5101209;28;20259;-63
2023/01/13 01:32:26;;;;;;;1.20;1.10;;;;;;;;;;5100343;28;20290;-63
2023/01/13 01:34:55;;;;;;;1.70;0.90;;;;;;;;;;5100745;28;20299;-63
2023/01/13 01:37:23;;;;;;;2.05;1.80;;;;;;;;;;5101639;28;20346;-64
2023/01/13 01:39:51;;;;;;;2.45;1.00;;;;;;;;;;5102999;28;20207;-64
2023/01/13 01:45:14;;;;;;;2.25;1.00;;;;;;;;;;5101377;28;20623;-64
2023/01/13 01:47:43;;;;;;;3.20;1.65;;;;;;;;;;5102200;28;20266;-63
2023/01/13 01:50:11;;;;;;;1.25;1.15;;;;;;;;;;5102226;28;20255;-64
2023/01/13 01:52:41;;;;;;;2.25;0.80;;;;;;;;;;5101813;28;20258;-63
2023/01/13 01:55:11;;;;;;;4.10;0.90;;;;;;;;;;5090687;28;20275;-63
2023/01/13 01:57:42;;;;;;;1.05;0.85;;;;;;;;;;5083570;28;20286;-64
2023/01/13 02:00:11;;;;;;;0.95;0.90;;;;;;;;;;5082363;28;20318;-64
2023/01/13 02:02:44;;;;;;;2.85;1.13;;;;;;;;;;5080588;28;20241;-64
2023/01/13 02:05:13;;;;;;;3.30;1.20;;;;;;;;;;5080639;28;20249;-63
2023/01/13 02:07:42;;;;;;;2.33;1.02;;;;;;;;;;5083218;28;20283;-63
2023/01/13 02:10:12;;;;;;;1.00;0.90;;;;;;;;;;5083278;28;20295;-63
2023/01/13 02:12:40;;;;;;;1.17;0.80;;;;;;;;;;5083052;28;20196;-63
2023/01/13 02:15:10;;;;;;;1.13;0.70;;;;;;;;;;5082721;28;20279;-64
2023/01/13 02:17:53;;;;;;;0.90;0.90;;;;;;;;;;5086584;28;20274;-63
2023/01/13 02:20:40;;;;;;;1.30;0.82;;;;;;;;;;5103377;28;20254;-63
2023/01/13 02:26:19;;;;;;;5.53;1.00;;;;;;;;;;5068316;28;20290;-65
2023/01/13 02:31:49;;;;;;;1.38;0.80;;;;;;;;;;5099764;28;20266;-65
2023/01/13 02:34:20;;;;;;;3.88;1.05;;;;;;;;;;5101037;28;20262;-65
2023/01/13 02:36:50;;;;;;;1.10;0.70;;;;;;;;;;5100367;28;20360;-65
2023/01/13 02:39:23;;;;;;;1.10;0.90;;;;;;;;;;5102228;28;20258;-62
2023/01/13 02:44:44;;;;;;;1.23;1.13;;;;;;;;;;5102794;28;20266;-63
2023/01/13 02:47:16;;;;;;;2.15;1.00;;;;;;;;;;5102497;28;20243;-63
2023/01/13 02:49:47;;;;;;;2.65;1.10;;;;;;;;;;5102396;28;20428;-63
2023/01/13 02:52:18;;;;;;;4.05;1.08;;;;;;;;;;5101336;28;20271;-63
2023/01/13 02:54:49;;;;;;;2.40;1.40;;;;;;;;;;5101256;28;20274;-65
2023/01/13 02:57:18;;;;;;;1.42;1.00;;;;;;;;;;5100126;28;20733;-65
2023/01/13 02:59:47;;;;;;;2.25;1.30;;;;;;;;;;5102486;28;20286;-65
2023/01/13 03:02:19;;;;;;;2.33;0.95;;;;;;;;;;5102404;28;20259;-65
2023/01/13 03:04:49;;;;;;;2.10;1.02;;;;;;;;;;5103143;28;20243;-64
2023/01/13 03:07:32;;;;;;;1.35;1.10;;;;;;;;;;5102589;28;20258;-64
2023/01/13 03:10:03;;;;;;;3.58;0.90;;;;;;;;;;5059060;28;20259;-65
2023/01/13 03:12:38;;;;;;;2.08;0.70;;;;;;;;;;5093933;28;20244;-65
2023/01/13 03:15:10;;;;;;;1.05;0.95;;;;;;;;;;5090499;28;20266;-65
2023/01/13 03:17:42;;;;;;;1.33;1.00;;;;;;;;;;5099920;28;20244;-64
2023/01/13 03:20:16;;;;;;;1.63;0.90;;;;;;;;;;5096796;28;20297;-65
2023/01/13 03:22:47;;;;;;;0.75;0.60;;;;;;;;;;5102447;28;20314;-65
2023/01/13 03:25:18;;;;;;;10.38;1.00;;;;;;;;;;5093764;28;20291;-65
2023/01/13 03:27:51;;;;;;;1.98;0.90;;;;;;;;;;5105957;28;20617;-65
2023/01/13 03:30:21;;;;;;;2.05;1.95;;;;;;;;;;5095671;28;20270;-65
2023/01/13 03:32:53;;;;;;;12.00;10.43;;;;;;;;;;5085417;28;20244;-64
2023/01/13 03:35:24;;;;;;;3.50;1.60;;;;;;;;;;5085389;28;20290;-64
2023/01/13 03:37:53;;;;;;;3.30;2.58;;;;;;;;;;5087167;28;20279;-65
2023/01/13 03:40:24;;;;;;;1.60;1.50;;;;;;;;;;5085033;28;20282;-65
2023/01/13 03:45:42;;;;;;;2.90;1.92;;;;;;;;;;5092107;28;20267;-65
2023/01/13 03:48:14;;;;;;;1.63;1.00;;;;;;;;;;5088275;28;20374;-65
2023/01/13 03:50:44;;;;;;;2.63;2.42;;;;;;;;;;5085123;28;20274;-65
2023/01/13 03:53:14;;;;;;;2.75;2.40;;;;;;;;;;5085090;28;20267;-62
2023/01/13 03:55:44;;;;;;;4.43;2.58;;;;;;;;;;5099056;28;20310;-65
2023/01/13 03:58:15;;;;;;;6.05;5.30;;;;;;;;;;5087182;28;20282;-65
2023/01/13 04:00:48;;;;;;;1.90;1.80;;;;;;;;;;5088364;28;20596;-63
2023/01/13 04:03:21;;;;;;;4.47;3.80;;;;;;;;;;5100422;28;20266;-63
2023/01/13 04:05:52;;;;;;;1.10;1.00;;;;;;;;;;5090647;28;20279;-64
2023/01/13 04:08:22;;;;;;;5.10;3.47;;;;;;;;;;5085285;28;20275;-64
2023/01/13 04:10:52;;;;;;;1.50;1.40;;;;;;;;;;5087967;28;20283;-64
2023/01/13 04:13:23;;;;;;;4.57;3.40;;;;;;;;;;5096763;28;20278;-64
2023/01/13 04:15:51;;;;;;;4.10;3.70;;;;;;;;;;5094411;28;20297;-64
2023/01/13 04:18:22;;;;;;;1.80;1.20;;;;;;;;;;5089211;28;20251;-64
2023/01/13 04:20:52;;;;;;;2.35;1.98;;;;;;;;;;5104218;28;20702;-65
2023/01/13 04:23:20;;;;;;;1.33;1.23;;;;;;;;;;5100557;28;20692;-64
2023/01/13 04:25:49;;;;;;;0.90;0.90;;;;;;;;;;5100011;28;20252;-64
2023/01/13 04:28:18;;;;;;;3.42;2.03;;;;;;;;;;5098664;28;20673;-64
2023/01/13 04:30:46;;;;;;;3.55;1.90;;;;;;;;;;5100061;28;20210;-64
2023/01/13 04:33:15;;;;;;;1.15;0.85;;;;;;;;;;5101733;28;20259;-64
2023/01/13 04:35:46;;;;;;;0.70;0.70;;;;;;;;;;5103139;28;20682;-63
2023/01/13 04:38:15;;;;;;;2.88;0.90;;;;;;;;;;5103539;28;20267;-66
2023/01/13 04:40:43;;;;;;;1.00;0.90;;;;;;;;;;5103615;28;20274;-64
2023/01/13 04:43:11;;;;;;;1.55;1.10;;;;;;;;;;5103739;28;20629;-64
2023/01/13 04:45:39;;;;;;;1.77;0.90;;;;;;;;;;5103734;28;20286;-64
2023/01/13 04:48:08;;;;;;;2.13;1.00;;;;;;;;;;5103895;28;20278;-64
2023/01/13 04:50:36;;;;;;;1.65;0.80;;;;;;;;;;5103136;28;20314;-64
2023/01/13 04:53:05;;;;;;;2.90;0.80;;;;;;;;;;5102449;28;20262;-64
2023/01/13 04:55:34;;;;;;;1.08;0.95;;;;;;;;;;5103416;28;20199;-64
2023/01/13 04:58:03;;;;;;;0.73;0.73;;;;;;;;;;5102828;28;20310;-64
2023/01/13 05:00:31;;;;;;;0.70;0.70;;;;;;;;;;5105055;28;20619;-65
2023/01/13 05:02:59;;;;;;;1.00;0.90;;;;;;;;;;5103866;28;20629;-64
2023/01/13 05:05:28;;;;;;;1.10;1.00;;;;;;;;;;5105222;28;20263;-64
2023/01/13 05:07:56;;;;;;;1.55;0.90;;;;;;;;;;5104621;28;20289;-64
2023/01/13 05:10:26;;;;;;;2.30;1.08;;;;;;;;;;5105491;28;20286;-64
2023/01/13 05:18:27;;;;;;;1.50;0.70;;;;;;;;;;5101579;28;20248;-62
2023/01/13 05:20:56;;;;;;;1.15;0.80;;;;;;;;;;5086245;28;20733;-64
2023/01/13 05:26:11;;;;;;;0.90;0.90;;;;;;;;;;5101167;28;20195;-63
2023/01/13 05:28:39;;;;;;;2.50;1.08;;;;;;;;;;5084552;28;20260;-63
2023/01/13 05:31:08;;;;;;;0.60;0.60;;;;;;;;;;5098260;28;20282;-64
2023/01/13 05:33:36;;;;;;;1.13;0.80;;;;;;;;;;5082366;28;20341;-64
2023/01/13 05:36:05;;;;;;;1.08;0.85;;;;;;;;;;5083317;28;20322;-64
2023/01/13 05:38:33;;;;;;;4.60;0.70;;;;;;;;;;5083505;28;20276;-63
2023/01/13 05:43:48;;;;;;;1.20;0.88;;;;;;;;;;5082978;28;20248;-64
2023/01/13 05:46:17;;;;;;;0.70;0.70;;;;;;;;;;5092276;28;20277;-64
2023/01/13 05:48:46;;;;;;;0.70;0.70;;;;;;;;;;5087708;28;20268;-65
2023/01/13 05:51:14;;;;;;;1.05;0.80;;;;;;;;;;5083227;28;20300;-64
2023/01/13 05:53:42;;;;;;;1.40;0.70;;;;;;;;;;5082986;28;20283;-64
2023/01/13 05:56:11;;;;;;;1.05;0.90;;;;;;;;;;5080854;28;20283;-64
2023/01/13 05:58:39;;;;;;;1.35;0.90;;;;;;;;;;5081089;28;20655;-64
2023/01/13 06:01:09;;;;;;;0.80;0.80;;;;;;;;;;5079809;28;20286;-64
2023/01/13 06:03:37;;;;;;;1.50;0.60;;;;;;;;;;5086846;28;20629;-64
2023/01/13 06:06:07;;;;;;;0.77;0.77;;;;;;;;;;5096855;28;20211;-64
2023/01/13 06:08:36;;;;;;;1.08;0.98;;;;;;;;;;5095807;28;20333;-65
2023/01/13 06:11:04;;;;;;;1.13;0.80;;;;;;;;;;5081051;28;20263;-65
2023/01/13 06:13:32;;;;;;;2.30;1.10;;;;;;;;;;5081473;28;20274;-65
2023/01/13 06:16:00;;;;;;;1.13;0.80;;;;;;;;;;5098495;28;20283;-65
2023/01/13 06:18:32;;;;;;;1.08;1.00;;;;;;;;;;5094858;28;20309;-64
2023/01/13 06:21:00;;;;;;;2.97;1.00;;;;;;;;;;5078694;28;20279;-65
2023/01/13 06:23:33;;;;;;;1.10;0.85;;;;;;;;;;5077560;28;20299;-65
2023/01/13 06:26:06;;;;;;;1.00;0.70;;;;;;;;;;5077191;28;20273;-65
2023/01/13 06:28:35;;;;;;;1.00;0.90;;;;;;;;;;5074845;28;20191;-64
2023/01/13 06:31:05;;;;;;;1.00;0.77;;;;;;;;;;5081056;28;20270;-64
2023/01/13 06:33:37;;;;;;;0.80;0.80;;;;;;;;;;5079946;28;20274;-64
2023/01/13 06:36:07;;;;;;;4.22;0.70;;;;;;;;;;5078232;28;20279;-64
2023/01/13 06:38:38;;;;;;;2.25;1.05;;;;;;;;;;5083479;28;20219;-64
2023/01/13 06:41:07;;;;;;;0.80;0.80;;;;;;;;;;5102135;28;20274;-64
2023/01/13 06:43:35;;;;;;;1.15;1.00;;;;;;;;;;5099215;28;20277;-64
2023/01/13 06:46:03;;;;;;;1.80;0.90;;;;;;;;;;5101294;28;20199;-64
2023/01/13 06:48:33;;;;;;;1.65;0.90;;;;;;;;;;5090016;28;20279;-64
2023/01/13 06:51:03;;;;;;;2.90;0.90;;;;;;;;;;5078059;28;20243;-64
2023/01/13 06:53:31;;;;;;;1.52;1.13;;;;;;;;;;5079306;28;20824;-63
2023/01/13 06:56:00;;;;;;;1.90;0.82;;;;;;;;;;5079446;28;20199;-64
2023/01/13 06:58:28;;;;;;;0.77;0.75;;;;;;;;;;5098455;28;20257;-63
2023/01/13 07:01:00;;;;;;;1.00;0.90;;;;;;;;;;5098460;28;20188;-63
2023/01/13 07:03:28;;;;;;;5.95;1.98;;;;;;;;;;5100177;28;20642;-65
2023/01/13 07:05:57;;;;;;;3.35;1.25;;;;;;;;;;5100555;28;20285;-63
2023/01/13 07:08:27;;;;;;;3.75;1.20;;;;;;;;;;5099908;28;20740;-64
2023/01/13 07:10:55;;;;;;;3.08;1.20;;;;;;;;;;5080717;28;20627;-63
2023/01/13 07:16:09;;;;;;;0.60;0.60;;;;;;;;;;5097596;28;20188;-64
2023/01/13 07:18:38;;;;;;;0.85;0.70;;;;;;;;;;5096907;28;20219;-64
2023/01/13 07:21:07;;;;;;;0.80;0.70;;;;;;;;;;5094591;28;20221;-62
2023/01/13 07:23:38;;;;;;;3.22;0.70;;;;;;;;;;5092453;28;20767;-62
2023/01/13 07:26:07;;;;;;;1.70;0.80;;;;;;;;;;5096383;28;20184;-63
2023/01/13 07:28:35;;;;;;;1.65;0.93;;;;;;;;;;5095670;28;20200;-62
2023/01/13 07:31:03;;;;;;;3.45;1.27;;;;;;;;;;5091222;28;20240;-63
2023/01/13 07:33:32;;;;;;;0.70;0.70;;;;;;;;;;5098159;28;20204;-63
2023/01/13 07:36:02;;;;;;;1.67;0.70;;;;;;;;;;5098517;28;20211;-64
2023/01/13 07:38:30;;;;;;;2.70;0.82;;;;;;;;;;5096805;28;20219;-64
2023/01/13 07:43:30;;;;;;;2.17;0.80;;;;;;;;;;5098736;28;20322;-63
2023/01/13 07:43:49;;;;;;;1.52;0.75;;;;;;;;;;5105852;28;20286;-64
2023/01/13 07:46:17;;;;;;;1.80;1.67;;;;;;;;;;5101008;28;20258;-64
2023/01/13 07:48:47;;;;;;;3.83;1.15;;;;;;;;;;5100995;28;20282;-63
2023/01/13 07:51:15;;;;;;;3.63;1.75;;;;;;;;;;5107186;28;20286;-63
2023/01/13 07:53:43;;;;;;;1.60;0.80;;;;;;;;;;5105016;28;20476;-63
2023/01/13 07:56:14;;;;;;;0.98;0.80;;;;;;;;;;5104450;28;20798;-62
2023/01/13 07:58:43;;;;;;;3.47;1.08;;;;;;;;;;5100609;28;20659;-62
2023/01/13 08:01:12;;;;;;;3.67;1.08;;;;;;;;;;5094815;28;20611;-62
2023/01/13 08:03:41;;;;;;;3.33;1.15;;;;;;;;;;5097729;28;20252;-63
2023/01/13 08:06:09;;;;;;;2.22;0.90;;;;;;;;;;5098683;28;20276;-63
2023/01/13 08:08:38;;;;;;;3.22;1.10;;;;;;;;;;5101145;28;20282;-63
2023/01/13 08:11:07;;;;;;;1.20;0.80;;;;;;;;;;5097793;28;20279;-63
2023/01/13 08:13:37;;;;;;;1.85;1.05;;;;;;;;;;5099643;28;20209;-63
2023/01/13 08:16:06;;;;;;;1.85;0.75;;;;;;;;;;5096828;28;20290;-64
2023/01/13 08:18:34;;;;;;;1.52;0.70;;;;;;;;;;5090673;28;20223;-63
2023/01/13 08:21:03;;;;;;;1.63;0.90;;;;;;;;;;5082390;28;20308;-64
2023/01/13 08:23:32;;;;;;;2.00;0.80;;;;;;;;;;5082791;28;20303;-64
2023/01/13 08:26:01;;;;;;;1.02;0.60;;;;;;;;;;5079402;28;20619;-63
2023/01/13 08:28:30;;;;;;;1.52;0.82;;;;;;;;;;5076143;28;20210;-63
2023/01/13 08:31:01;;;;;;;0.90;0.80;;;;;;;;;;5075171;28;20204;-63
2023/01/13 08:33:29;;;;;;;3.47;0.88;;;;;;;;;;5078988;28;20718;-64
2023/01/13 08:35:57;;;;;;;4.70;0.95;;;;;;;;;;5080938;28;20208;-64
2023/01/13 08:38:25;;;;;;;1.73;0.93;;;;;;;;;;5096595;28;20278;-63
2023/01/13 08:40:53;;;;;;;6.40;1.00;;;;;;;;;;5094861;28;20563;-63
2023/01/13 08:43:22;;;;;;;2.28;1.17;;;;;;;;;;5094918;28;20675;-63
2023/01/13 08:45:56;;;;;;;3.83;1.15;;;;;;;;;;5096833;28;20278;-64
2023/01/13 08:48:26;;;;;;;2.35;1.38;;;;;;;;;;5101005;28;20728;-64
2023/01/13 08:50:54;;;;;;;6.10;1.55;;;;;;;;;;5104070;28;20283;-64
2023/01/13 08:53:22;;;;;;;1.05;0.95;;;;;;;;;;5103259;28;20278;-64
2023/01/13 08:55:51;;;;;;;5.20;1.48;;;;;;;;;;5103196;28;20288;-64
2023/01/13 08:58:19;;;;;;;5.32;1.20;;;;;;;;;;5101423;28;20279;-63
2023/01/13 09:00:47;;;;;;;2.83;1.42;;;;;;;;;;5105381;28;20294;-64
2023/01/13 09:03:15;;;;;;;3.15;1.45;;;;;;;;;;5098469;28;20332;-64
2023/01/13 09:05:45;;;;;;;2.83;0.85;;;;;;;;;;5094772;28;20207;-64
2023/01/13 09:08:13;;;;;;;3.58;1.25;;;;;;;;;;5101290;28;20279;-64
2023/01/13 09:10:41;;;;;;;4.93;1.20;;;;;;;;;;5096584;28;20207;-64
2023/01/13 09:13:11;;;;;;;3.22;0.80;;;;;;;;;;5099538;28;20688;-64
2023/01/13 09:15:40;;;;;;;8.73;1.00;;;;;;;;;;5098774;28;20187;-64
2023/01/13 09:18:08;;;;;;;5.50;1.27;;;;;;;;;;5097357;28;20289;-64
2023/01/13 09:20:36;;;;;;;2.45;2.25;;;;;;;;;;5096559;28;20207;-63
2023/01/13 09:23:06;;;;;;;4.20;1.45;;;;;;;;;;5104248;28;20274;-64
2023/01/13 09:25:35;;;;;;;7.45;1.30;;;;;;;;;;5102966;28;20283;-64
2023/01/13 09:28:04;;;;;;;1.60;0.90;;;;;;;;;;5100329;28;20270;-64
2023/01/13 09:30:32;;;;;;;3.22;1.40;;;;;;;;;;5104155;28;20258;-63
2023/01/13 09:35:47;;;;;;;3.45;1.10;;;;;;;;;;5103799;28;20271;-64
2023/01/13 09:38:17;;;;;;;2.95;1.30;;;;;;;;;;5101940;28;20351;-64
2023/01/13 09:40:48;;;;;;;4.93;1.60;;;;;;;;;;5093415;28;20275;-64
2023/01/13 09:46:42;;;;;;;2.50;1.33;;;;;;;;;;5077544;28;20290;-63
2023/01/13 09:48:58;;;;;;;3.83;1.25;;;;;;;;;;5093257;28;20251;-65
2023/01/13 09:51:31;;;;;;;4.03;1.20;;;;;;;;;;5099924;28;20290;-64
2023/01/13 09:54:03;;;;;;;2.03;1.27;;;;;;;;;;5098926;28;20262;-64
2023/01/13 09:56:31;;;;;;;6.30;1.48;;;;;;;;;;5096893;28;20187;-64
2023/01/13 09:59:00;;;;;;;4.38;1.40;;;;;;;;;;5098782;28;20231;-63
2023/01/13 10:01:30;;;;;;;5.32;1.55;;;;;;;;;;5098720;28;20290;-63
2023/01/13 10:04:02;;;;;;;8.23;2.20;;;;;;;;;;5097441;28;20266;-64
2023/01/13 10:06:33;;;;;;;5.18;1.27;;;;;;;;;;5095037;28;20191;-64
2023/01/13 10:09:03;;;;;;;7.05;1.33;;;;;;;;;;5095980;28;20190;-64
2023/01/13 10:14:20;;;;;;;4.60;1.60;;;;;;;;;;5096185;28;20195;-65
2023/01/13 10:16:51;;;;;;;4.32;1.08;;;;;;;;;;5098629;28;20286;-64
2023/01/13 10:19:21;;;;;;;4.53;1.20;;;;;;;;;;5100159;28;20336;-64
2023/01/13 10:21:57;;;;;;;3.67;1.58;;;;;;;;;;5102717;28;20282;-63
2023/01/13 10:24:32;;;;;;;4.10;1.45;;;;;;;;;;5099339;28;20267;-64
2023/01/13 10:27:03;;;;;;;3.28;1.52;;;;;;;;;;5098467;28;20686;-64
2023/01/13 10:29:32;;;;;;;5.97;1.38;;;;;;;;;;5098375;28;20271;-64
2023/01/13 10:32:01;;;;;;;2.35;1.30;;;;;;;;;;5099409;28;20279;-64
2023/01/13 10:34:29;;;;;;;5.25;1.45;;;;;;;;;;5095055;28;20282;-63
2023/01/13 10:37:00;;;;;;;4.78;1.92;;;;;;;;;;5093064;28;20624;-63
2023/01/13 10:39:38;;;;;;;5.40;1.92;;;;;;;;;;5093171;28;20206;-63
2023/01/13 10:42:08;;;;;;;9.15;1.95;;;;;;;;;;5097207;28;20270;-63
2023/01/13 10:44:46;;;;;;;5.20;1.85;;;;;;;;;;5078354;28;20284;-64
2023/01/13 10:47:20;;;;;;;4.40;2.08;;;;;;;;;;5070852;28;20204;-63
2023/01/13 10:49:59;;;;;;;5.25;1.67;;;;;;;;;;5072006;28;20447;-64
2023/01/13 10:52:29;;;;;;;10.95;1.70;;;;;;;;;;5075630;28;20276;-65
2023/01/13 10:54:59;;;;;;;5.13;1.65;;;;;;;;;;5070876;28;20771;-63
2023/01/13 10:57:28;;;;;;;8.52;2.85;;;;;;;;;;5072179;28;20192;-63
2023/01/13 10:59:57;;;;;;;7.00;1.92;;;;;;;;;;5072076;28;20231;-64
2023/01/13 11:02:27;;;;;;;9.45;1.90;;;;;;;;;;5072035;28;20206;-63
2023/01/13 11:05:10;;;;;;;7.97;2.33;;;;;;;;;;5071085;28;20755;-63
2023/01/13 11:07:39;;;;;;;12.90;1.67;;;;;;;;;;5069383;28;20580;-63
2023/01/13 11:10:18;;;;;;;3.28;1.75;;;;;;;;;;5087384;28;20214;-63
2023/01/13 11:12:49;;;;;;;2.20;1.48;;;;;;;;;;5093892;28;20205;-63
2023/01/13 11:15:19;;;;;;;3.10;1.40;;;;;;;;;;5082796;28;20278;-63
2023/01/13 11:17:50;;;;;;;5.15;2.20;;;;;;;;;;5096143;28;20270;-63
2023/01/13 11:20:21;;;;;;;7.07;1.67;;;;;;;;;;5097189;28;20290;-64
2023/01/13 11:22:51;;;;;;;1.88;1.67;;;;;;;;;;5096231;28;20302;-63
2023/01/13 11:25:23;;;;;;;12.55;2.50;;;;;;;;;;5096301;28;20286;-63
2023/01/13 11:27:56;;;;;;;10.30;2.22;;;;;;;;;;5095573;28;20641;-63
2023/01/13 11:30:30;;;;;;;8.68;1.90;;;;;;;;;;5097029;28;20701;-64
2023/01/13 11:33:03;;;;;;;8.30;2.08;;;;;;;;;;5096947;28;20271;-63
2023/01/13 11:35:34;;;;;;;10.45;2.60;;;;;;;;;;5097898;28;20276;-63
2023/01/13 11:38:07;;;;;;;9.95;1.95;;;;;;;;;;5100684;28;20686;-65
2023/01/13 11:40:38;;;;;;;4.13;1.67;;;;;;;;;;5093535;28;20263;-63
2023/01/13 11:43:11;;;;;;;8.77;2.28;;;;;;;;;;5087245;28;20283;-63
2023/01/13 11:45:42;;;;;;;4.45;2.00;;;;;;;;;;5089957;28;20247;-64
2023/01/13 11:48:13;;;;;;;8.77;1.73;;;;;;;;;;5093913;28;20706;-64
2023/01/13 11:50:43;;;;;;;2.75;1.80;;;;;;;;;;5095788;28;20263;-63
2023/01/13 11:53:24;;;;;;;6.47;1.80;;;;;;;;;;5101990;28;20283;-63
2023/01/13 11:56:02;;;;;;;4.05;2.63;;;;;;;;;;5105921;28;20313;-63
2023/01/13 11:58:46;;;;;;;6.07;1.95;;;;;;;;;;5104618;28;20310;-62
2023/01/13 12:01:25;;;;;;;6.07;2.70;;;;;;;;;;5105616;28;20587;-64
2023/01/13 12:04:01;;;;;;;8.05;2.75;;;;;;;;;;5096771;28;20784;-63
2023/01/13 12:06:33;;;;;;;4.50;2.53;;;;;;;;;;5087917;28;20283;-63
2023/01/13 12:09:11;;;;;;;9.37;2.50;;;;;;;;;;5101990;28;20640;-63
2023/01/13 12:14:39;;;;;;;9.50;2.78;;;;;;;;;;5087786;28;20639;-64
2023/01/13 12:17:12;;;;;;;5.70;2.63;;;;;;;;;;5084429;28;20298;-63
2023/01/13 12:19:44;;;;;;;9.75;2.25;;;;;;;;;;5083489;28;20310;-63
2023/01/13 12:22:14;;;;;;;13.57;2.70;;;;;;;;;;5078226;28;20306;-63
2023/01/13 12:24:46;;;;;;;6.18;2.10;;;;;;;;;;5078211;28;20214;-63
2023/01/13 12:27:18;;;;;;;4.97;1.92;;;;;;;;;;5078087;28;20188;-63
2023/01/13 12:29:48;;;;;;;4.63;2.05;;;;;;;;;;5080490;28;20176;-64
2023/01/13 12:32:19;;;;;;;4.35;1.85;;;;;;;;;;5087668;28;20195;-64
2023/01/13 12:35:00;;;;;;;8.38;2.15;;;;;;;;;;5087148;28;20564;-64
2023/01/13 12:37:33;;;;;;;6.03;2.05;;;;;;;;;;5089507;28;20199;-64
2023/01/13 12:40:06;;;;;;;2.83;1.50;;;;;;;;;;5088636;28;20272;-63
2023/01/13 12:45:29;;;;;;;3.28;1.90;;;;;;;;;;5086759;28;20282;-63
2023/01/13 12:47:57;;;;;;;5.68;1.83;;;;;;;;;;5091486;28;20282;-63
2023/01/13 12:50:42;;;;;;;8.25;2.25;;;;;;;;;;5086040;28;20642;-64
2023/01/13 12:53:29;;;;;;;3.50;1.52;;;;;;;;;;5094149;28;20279;-65
2023/01/13 12:56:12;;;;;;;4.22;2.00;;;;;;;;;;5089922;28;20255;-65
2023/01/13 12:58:42;;;;;;;7.10;2.42;;;;;;;;;;5098816;28;20286;-65
2023/01/13 13:01:12;;;;;;;6.32;1.60;;;;;;;;;;5104370;28;20275;-65
2023/01/13 13:03:41;;;;;;;4.53;1.90;;;;;;;;;;5104971;28;20247;-65
2023/01/13 13:06:19;;;;;;;4.10;2.13;;;;;;;;;;5103766;28;20200;-65
2023/01/13 13:08:58;;;;;;;3.10;2.30;;;;;;;;;;5102889;28;21106;-65
2023/01/13 13:14:44;;;;;;;3.23;2.20;;;;;;;;;;5091834;28;20706;-64
2023/01/13 13:17:28;;;;;;;8.17;2.93;;;;;;;;;;5103343;28;21238;-64
2023/01/13 13:19:58;;;;;;;21.97;11.13;;;;;;;;;;5091356;28;20716;-64
2023/01/13 13:22:44;;;;;;;13.07;9.70;;;;;;;;;;5104045;28;20702;-64
2023/01/13 13:25:23;;;;;;;17.27;8.83;;;;;;;;;;5107353;28;20645;-64
2023/01/13 13:27:59;;;;;;;5.70;3.13;;;;;;;;;;5106921;28;21135;-64
2023/01/13 13:30:29;;;;;;;20.77;8.97;;;;;;;;;;5105025;28;20612;-64
2023/01/13 13:33:03;;;;;;;35.27;25.20;;;;;;;;;;5105495;28;20683;-64
2023/01/13 13:35:50;;;;;;;12.27;5.80;;;;;;;;;;5089852;28;20648;-63
2023/01/13 13:46:59;;;;;;;7.43;2.35;;;;;;;;;;5076826;28;20306;-63
2023/01/13 13:49:36;;;;;;;6.97;2.05;;;;;;;;;;5078335;28;20624;-63
2023/01/13 13:52:08;;;;;;;7.05;1.77;;;;;;;;;;5078844;28;20216;-63
2023/01/13 13:54:38;;;;;;;6.00;2.28;;;;;;;;;;5087188;28;20202;-63
2023/01/13 13:57:14;;;;;;;3.92;1.83;;;;;;;;;;5079044;28;20208;-63
2023/01/13 13:59:42;;;;;;;3.63;1.77;;;;;;;;;;5082250;28;20322;-63
2023/01/13 14:02:16;;;;;;;4.60;1.92;;;;;;;;;;5080194;28;20225;-63
2023/01/13 14:04:44;;;;;;;8.63;1.80;;;;;;;;;;5085976;28;20208;-63
2023/01/13 14:07:17;;;;;;;4.78;1.60;;;;;;;;;;5082268;28;20211;-63
2023/01/13 14:09:47;;;;;;;2.40;1.58;;;;;;;;;;5096539;28;20600;-63
2023/01/13 14:12:19;;;;;;;2.75;1.52;;;;;;;;;;5093684;28;20690;-63
2023/01/13 14:14:49;;;;;;;5.03;1.90;;;;;;;;;;5097576;28;20274;-64
2023/01/13 14:17:22;;;;;;;5.70;1.40;;;;;;;;;;5105064;28;20291;-64
2023/01/13 14:19:56;;;;;;;8.70;1.52;;;;;;;;;;5101478;28;20267;-63
2023/01/13 14:22:24;;;;;;;5.60;1.42;;;;;;;;;;5096774;28;20282;-64
2023/01/13 14:24:56;;;;;;;5.40;1.73;;;;;;;;;;5099053;28;20259;-64
2023/01/13 14:27:26;;;;;;;4.32;1.60;;;;;;;;;;5102028;28;20263;-64
2023/01/13 14:29:57;;;;;;;14.20;3.95;;;;;;;;;;5081639;28;20256;-64
2023/01/13 14:32:27;;;;;;;4.38;1.55;;;;;;;;;;5077767;28;20283;-63
2023/01/13 14:34:55;;;;;;;2.42;1.60;;;;;;;;;;5077219;28;20214;-63
2023/01/13 14:37:25;;;;;;;6.50;1.90;;;;;;;;;;5076416;28;20204;-62
2023/01/13 14:39:55;;;;;;;11.23;2.83;;;;;;;;;;5077309;28;20196;-63
2023/01/13 14:42:23;;;;;;;5.57;1.65;;;;;;;;;;5078056;28;20219;-62
2023/01/13 14:44:51;;;;;;;4.85;1.98;;;;;;;;;;5079880;28;20275;-62
2023/01/13 14:47:23;;;;;;;3.65;2.33;;;;;;;;;;5079775;28;20279;-63
2023/01/13 14:49:57;;;;;;;12.75;3.70;;;;;;;;;;5090671;28;20275;-63
2023/01/13 14:52:27;;;;;;;5.40;2.40;;;;;;;;;;5077621;28;20199;-63
2023/01/13 14:55:17;;;;;;;3.10;1.60;;;;;;;;;;5083825;28;20195;-64
2023/01/13 14:57:45;;;;;;;3.28;1.58;;;;;;;;;;5082982;28;20663;-63
2023/01/13 15:00:24;;;;;;;6.00;1.80;;;;;;;;;;5077576;28;20232;-63
2023/01/13 15:03:06;;;;;;;7.93;1.70;;;;;;;;;;5073413;28;20214;-64
2023/01/13 15:05:46;;;;;;;9.82;2.40;;;;;;;;;;5074946;28;20263;-63
2023/01/13 15:08:32;;;;;;;9.50;2.33;;;;;;;;;;5073351;28;20203;-64
2023/01/13 15:11:02;;;;;;;6.05;2.20;;;;;;;;;;5074144;28;20184;-63
2023/01/13 15:13:42;;;;;;;5.22;2.42;;;;;;;;;;5073286;28;20565;-64
2023/01/13 15:16:15;;;;;;;9.25;3.03;;;;;;;;;;5081698;28;20221;-63
2023/01/13 15:18:43;;;;;;;3.05;1.80;;;;;;;;;;5087157;28;20188;-63
2023/01/13 15:21:12;;;;;;;8.70;2.47;;;;;;;;;;5088578;28;20208;-64
2023/01/13 15:23:40;;;;;;;6.43;2.90;;;;;;;;;;5092495;28;20245;-63
2023/01/13 15:26:20;;;;;;;2.65;1.60;;;;;;;;;;5100318;28;20603;-63
2023/01/13 15:28:49;;;;;;;6.20;2.00;;;;;;;;;;5097534;28;20195;-63
2023/01/13 15:31:17;;;;;;;5.93;1.98;;;;;;;;;;5090511;28;20192;-63
2023/01/13 15:33:46;;;;;;;6.68;1.83;;;;;;;;;;5090869;28;20213;-64
2023/01/13 15:36:22;;;;;;;5.00;1.75;;;;;;;;;;5094358;28;20199;-64
2023/01/13 15:38:50;;;;;;;6.57;1.77;;;;;;;;;;5097403;28;20247;-64
2023/01/13 15:46:36;;;;;;;5.82;2.20;;;;;;;;;;5096448;28;20245;-64
2023/01/13 15:46:57;;;;;;;8.95;2.50;;;;;;;;;;5083608;28;20565;-63
2023/01/13 15:49:33;;;;;;;4.63;1.88;;;;;;;;;;5083639;28;20328;-64
2023/01/13 15:52:02;;;;;;;8.45;1.73;;;;;;;;;;5089708;28;20565;-65
2023/01/13 15:54:30;;;;;;;3.03;2.72;;;;;;;;;;5086688;28;20209;-64
2023/01/13 15:56:59;;;;;;;6.18;1.75;;;;;;;;;;5084733;28;20208;-64
2023/01/13 15:59:28;;;;;;;5.03;1.30;;;;;;;;;;5087058;28;20227;-64
2023/01/13 16:01:56;;;;;;;5.43;1.58;;;;;;;;;;5079121;28;20223;-64
2023/01/13 16:04:24;;;;;;;6.05;1.70;;;;;;;;;;5075878;28;20204;-64